sensor_id;sensor_type;location;lat;lon;timestamp;P1;durP1;ratioP1;P2;durP2;ratioP2
67749;SDS011;54550;48.838;8.828;2023-02-01T00:01:48;2.47;;;1.50;;
67749;SDS011;54550;48.838;8.828;2023-02-01T00:04:14;6.63;;;2.03;;
67749;SDS011;54550;48.838;8.828;2023-02-01T00:06:39;2.00;;;1.60;;
67749;SDS011;54550;48.838;8.828;2023-02-01T00:09:05;2.03;;;1.60;;
67749;SDS011;54550;48.838;8.828;2023-02-01T00:11:30;2.00;;;1.53;;
67749;SDS011;54550;48.838;8.828;2023-02-01T00:13:56;4.03;;;1.63;;
67749;SDS011;54550;48.838;8.828;2023-02-01T00:16:24;2.78;;;1.55;;
67749;SDS011;54550;48.838;8.828;2023-02-01T00:19:01;3.03;;;1.77;;
67749;SDS011;54550;48.838;8.828;2023-02-01T00:21:32;2.45;;;1.63;;
67749;SDS011;54550;48.838;8.828;2023-02-01T00:23:58;2.73;;;1.83;;
67749;SDS011;54550;48.838;8.828;2023-02-01T00:26:31;14.98;;;1.77;;
67749;SDS011;54550;48.838;8.828;2023-02-01T00:28:58;5.63;;;2.65;;
67749;SDS011;54550;48.838;8.828;2023-02-01T00:31:25;3.35;;;1.95;;
67749;SDS011;54550;48.838;8.828;2023-02-01T00:33:51;2.10;;;1.70;;
67749;SDS011;54550;48.838;8.828;2023-02-01T00:36:17;2.93;;;1.93;;
67749;SDS011;54550;48.838;8.828;2023-02-01T00:38:43;1.80;;;1.45;;
67749;SDS011;54550;48.838;8.828;2023-02-01T00:41:14;2.13;;;1.80;;
67749;SDS011;54550;48.838;8.828;2023-02-01T00:43:41;4.82;;;2.00;;
67749;SDS011;54550;48.838;8.828;2023-02-01T00:46:07;3.30;;;2.22;;
67749;SDS011;54550;48.838;8.828;2023-02-01T00:48:33;1.88;;;1.77;;
67749;SDS011;54550;48.838;8.828;2023-02-01T00:51:00;1.93;;;1.73;;
67749;SDS011;54550;48.838;8.828;2023-02-01T00:53:26;2.92;;;1.58;;
67749;SDS011;54550;48.838;8.828;2023-02-01T00:55:52;2.90;;;1.00;;
67749;SDS011;54550;48.838;8.828;2023-02-01T00:58:17;1.20;;;1.10;;
67749;SDS011;54550;48.838;8.828;2023-02-01T01:00:43;2.20;;;1.63;;
67749;SDS011;54550;48.838;8.828;2023-02-01T01:03:09;1.60;;;1.50;;
67749;SDS011;54550;48.838;8.828;2023-02-01T01:05:44;1.50;;;1.40;;
67749;SDS011;54550;48.838;8.828;2023-02-01T01:08:10;1.27;;;1.17;;
67749;SDS011;54550;48.838;8.828;2023-02-01T01:10:36;3.47;;;1.50;;
67749;SDS011;54550;48.838;8.828;2023-02-01T01:13:01;1.20;;;1.10;;
67749;SDS011;54550;48.838;8.828;2023-02-01T01:15:27;1.23;;;1.13;;
67749;SDS011;54550;48.838;8.828;2023-02-01T01:17:53;1.20;;;1.10;;
67749;SDS011;54550;48.838;8.828;2023-02-01T01:20:18;2.07;;;1.60;;
67749;SDS011;54550;48.838;8.828;2023-02-01T01:22:46;1.30;;;1.20;;
67749;SDS011;54550;48.838;8.828;2023-02-01T01:25:12;1.63;;;1.45;;
67749;SDS011;54550;48.838;8.828;2023-02-01T01:27:38;2.33;;;1.50;;
67749;SDS011;54550;48.838;8.828;2023-02-01T01:30:04;1.60;;;1.50;;
67749;SDS011;54550;48.838;8.828;2023-02-01T01:32:30;1.88;;;1.73;;
67749;SDS011;54550;48.838;8.828;2023-02-01T01:34:55;2.27;;;1.80;;
67749;SDS011;54550;48.838;8.828;2023-02-01T01:37:21;1.40;;;1.30;;
67749;SDS011;54550;48.838;8.828;2023-02-01T01:39:47;2.13;;;1.50;;
67749;SDS011;54550;48.838;8.828;2023-02-01T01:42:12;1.40;;;1.30;;
67749;SDS011;54550;48.838;8.828;2023-02-01T01:47:22;2.60;;;1.95;;
67749;SDS011;54550;48.838;8.828;2023-02-01T01:49:48;1.90;;;1.80;;
67749;SDS011;54550;48.838;8.828;2023-02-01T01:52:15;3.58;;;1.45;;
67749;SDS011;54550;48.838;8.828;2023-02-01T01:54:42;1.57;;;1.47;;
67749;SDS011;54550;48.838;8.828;2023-02-01T01:57:11;1.48;;;1.20;;
67749;SDS011;54550;48.838;8.828;2023-02-01T02:00:13;1.80;;;1.35;;
67749;SDS011;54550;48.838;8.828;2023-02-01T02:02:43;2.47;;;1.13;;
67749;SDS011;54550;48.838;8.828;2023-02-01T02:05:12;3.55;;;1.80;;
67749;SDS011;54550;48.838;8.828;2023-02-01T02:07:40;2.17;;;1.60;;
67749;SDS011;54550;48.838;8.828;2023-02-01T02:10:10;1.55;;;1.20;;
67749;SDS011;54550;48.838;8.828;2023-02-01T02:12:37;1.50;;;1.40;;
67749;SDS011;54550;48.838;8.828;2023-02-01T02:15:09;3.58;;;1.50;;
67749;SDS011;54550;48.838;8.828;2023-02-01T02:17:40;2.78;;;1.45;;
67749;SDS011;54550;48.838;8.828;2023-02-01T02:20:17;2.47;;;1.10;;
67749;SDS011;54550;48.838;8.828;2023-02-01T02:25:42;4.13;;;2.03;;
67749;SDS011;54550;48.838;8.828;2023-02-01T02:36:51;1.60;;;1.10;;
67749;SDS011;54550;48.838;8.828;2023-02-01T02:45:14;2.33;;;1.45;;
67749;SDS011;54550;48.838;8.828;2023-02-01T02:48:20;1.67;;;0.98;;
67749;SDS011;54550;48.838;8.828;2023-02-01T02:51:12;1.20;;;0.90;;
67749;SDS011;54550;48.838;8.828;2023-02-01T02:54:07;1.10;;;1.00;;
67749;SDS011;54550;48.838;8.828;2023-02-01T02:56:56;1.30;;;1.20;;
67749;SDS011;54550;48.838;8.828;2023-02-01T02:59:43;1.27;;;1.05;;
67749;SDS011;54550;48.838;8.828;2023-02-01T03:02:29;1.80;;;1.70;;
67749;SDS011;54550;48.838;8.828;2023-02-01T03:05:14;1.90;;;1.20;;
67749;SDS011;54550;48.838;8.828;2023-02-01T03:10:55;1.73;;;1.42;;
67749;SDS011;54550;48.838;8.828;2023-02-01T03:13:17;1.90;;;1.15;;
67749;SDS011;54550;48.838;8.828;2023-02-01T03:16:17;1.05;;;0.88;;
67749;SDS011;54550;48.838;8.828;2023-02-01T03:18:55;2.40;;;2.03;;
67749;SDS011;54550;48.838;8.828;2023-02-01T03:21:30;1.20;;;1.10;;
67749;SDS011;54550;48.838;8.828;2023-02-01T03:25:02;1.83;;;1.20;;
67749;SDS011;54550;48.838;8.828;2023-02-01T03:27:47;0.93;;;0.82;;
67749;SDS011;54550;48.838;8.828;2023-02-01T03:30:01;1.00;;;0.85;;
67749;SDS011;54550;48.838;8.828;2023-02-01T03:32:34;1.30;;;1.20;;
67749;SDS011;54550;48.838;8.828;2023-02-01T03:35:21;1.98;;;1.83;;
67749;SDS011;54550;48.838;8.828;2023-02-01T03:37:54;3.47;;;1.40;;
67749;SDS011;54550;48.838;8.828;2023-02-01T03:40:26;1.77;;;1.48;;
67749;SDS011;54550;48.838;8.828;2023-02-01T03:42:56;2.10;;;1.00;;
67749;SDS011;54550;48.838;8.828;2023-02-01T03:45:27;5.30;;;0.90;;
67749;SDS011;54550;48.838;8.828;2023-02-01T03:47:58;2.38;;;1.15;;
67749;SDS011;54550;48.838;8.828;2023-02-01T03:50:26;0.90;;;0.73;;
67749;SDS011;54550;48.838;8.828;2023-02-01T03:53:04;5.22;;;1.42;;
67749;SDS011;54550;48.838;8.828;2023-02-01T03:55:33;5.43;;;2.17;;
67749;SDS011;54550;48.838;8.828;2023-02-01T03:58:02;5.78;;;1.73;;
67749;SDS011;54550;48.838;8.828;2023-02-01T04:00:38;1.27;;;1.17;;
67749;SDS011;54550;48.838;8.828;2023-02-01T04:03:04;4.38;;;1.48;;
67749;SDS011;54550;48.838;8.828;2023-02-01T04:05:30;3.30;;;1.50;;
67749;SDS011;54550;48.838;8.828;2023-02-01T04:07:56;3.23;;;1.03;;
67749;SDS011;54550;48.838;8.828;2023-02-01T04:10:22;0.80;;;0.80;;
67749;SDS011;54550;48.838;8.828;2023-02-01T04:12:47;1.57;;;1.20;;
67749;SDS011;54550;48.838;8.828;2023-02-01T04:15:13;4.07;;;1.10;;
67749;SDS011;54550;48.838;8.828;2023-02-01T04:17:39;3.23;;;1.07;;
67749;SDS011;54550;48.838;8.828;2023-02-01T04:20:04;1.43;;;1.13;;
67749;SDS011;54550;48.838;8.828;2023-02-01T04:22:31;1.23;;;1.13;;
67749;SDS011;54550;48.838;8.828;2023-02-01T04:24:57;1.23;;;1.13;;
67749;SDS011;54550;48.838;8.828;2023-02-01T04:27:22;4.07;;;1.80;;
67749;SDS011;54550;48.838;8.828;2023-02-01T04:29:48;3.60;;;1.40;;
67749;SDS011;54550;48.838;8.828;2023-02-01T04:32:16;2.00;;;1.70;;
67749;SDS011;54550;48.838;8.828;2023-02-01T04:34:42;1.92;;;1.75;;
67749;SDS011;54550;48.838;8.828;2023-02-01T04:37:08;1.87;;;1.50;;
67749;SDS011;54550;48.838;8.828;2023-02-01T04:39:34;1.70;;;1.40;;
67749;SDS011;54550;48.838;8.828;2023-02-01T04:41:59;10.23;;;1.90;;
67749;SDS011;54550;48.838;8.828;2023-02-01T04:44:25;1.80;;;1.47;;
67749;SDS011;54550;48.838;8.828;2023-02-01T04:46:50;12.10;;;1.73;;
67749;SDS011;54550;48.838;8.828;2023-02-01T04:49:16;2.00;;;1.80;;
67749;SDS011;54550;48.838;8.828;2023-02-01T04:51:42;2.13;;;1.50;;
67749;SDS011;54550;48.838;8.828;2023-02-01T04:54:08;1.20;;;0.97;;
67749;SDS011;54550;48.838;8.828;2023-02-01T04:56:36;1.65;;;1.02;;
67749;SDS011;54550;48.838;8.828;2023-02-01T04:59:01;2.60;;;2.00;;
67749;SDS011;54550;48.838;8.828;2023-02-01T05:01:27;2.33;;;1.63;;
67749;SDS011;54550;48.838;8.828;2023-02-01T05:03:53;9.45;;;1.75;;
67749;SDS011;54550;48.838;8.828;2023-02-01T05:06:19;3.03;;;1.70;;
67749;SDS011;54550;48.838;8.828;2023-02-01T05:08:45;7.25;;;1.65;;
67749;SDS011;54550;48.838;8.828;2023-02-01T05:11:11;3.77;;;2.10;;
67749;SDS011;54550;48.838;8.828;2023-02-01T05:13:57;3.90;;;2.05;;
67749;SDS011;54550;48.838;8.828;2023-02-01T05:16:23;7.10;;;2.30;;
67749;SDS011;54550;48.838;8.828;2023-02-01T05:18:49;15.10;;;3.58;;
67749;SDS011;54550;48.838;8.828;2023-02-01T05:21:14;21.20;;;4.70;;
67749;SDS011;54550;48.838;8.828;2023-02-01T05:23:40;15.57;;;5.10;;
67749;SDS011;54550;48.838;8.828;2023-02-01T05:26:24;13.05;;;6.57;;
67749;SDS011;54550;48.838;8.828;2023-02-01T05:28:50;23.33;;;20.83;;
67749;SDS011;54550;48.838;8.828;2023-02-01T05:31:16;8.97;;;8.17;;
67749;SDS011;54550;48.838;8.828;2023-02-01T05:33:41;4.90;;;2.93;;
67749;SDS011;54550;48.838;8.828;2023-02-01T05:36:07;6.07;;;2.63;;
67749;SDS011;54550;48.838;8.828;2023-02-01T05:38:33;6.57;;;1.90;;
67749;SDS011;54550;48.838;8.828;2023-02-01T05:40:58;3.13;;;1.80;;
67749;SDS011;54550;48.838;8.828;2023-02-01T05:43:24;3.53;;;3.20;;
67749;SDS011;54550;48.838;8.828;2023-02-01T05:45:51;5.37;;;2.27;;
67749;SDS011;54550;48.838;8.828;2023-02-01T05:48:17;4.25;;;3.70;;
67749;SDS011;54550;48.838;8.828;2023-02-01T05:50:43;5.23;;;1.83;;
67749;SDS011;54550;48.838;8.828;2023-02-01T05:53:09;3.13;;;2.45;;
67749;SDS011;54550;48.838;8.828;2023-02-01T05:55:35;4.23;;;2.77;;
67749;SDS011;54550;48.838;8.828;2023-02-01T05:58:01;5.53;;;1.90;;
67749;SDS011;54550;48.838;8.828;2023-02-01T06:00:27;2.23;;;1.63;;
67749;SDS011;54550;48.838;8.828;2023-02-01T06:02:53;5.97;;;3.00;;
67749;SDS011;54550;48.838;8.828;2023-02-01T06:05:18;6.53;;;2.43;;
67749;SDS011;54550;48.838;8.828;2023-02-01T06:07:44;8.33;;;4.60;;
67749;SDS011;54550;48.838;8.828;2023-02-01T06:10:09;10.57;;;4.43;;
67749;SDS011;54550;48.838;8.828;2023-02-01T06:12:35;8.77;;;5.20;;
67749;SDS011;54550;48.838;8.828;2023-02-01T06:15:01;6.00;;;4.33;;
67749;SDS011;54550;48.838;8.828;2023-02-01T06:17:27;10.40;;;4.80;;
67749;SDS011;54550;48.838;8.828;2023-02-01T06:19:52;5.60;;;4.40;;
67749;SDS011;54550;48.838;8.828;2023-02-01T06:22:18;8.83;;;4.90;;
67749;SDS011;54550;48.838;8.828;2023-02-01T06:24:43;10.57;;;7.10;;
67749;SDS011;54550;48.838;8.828;2023-02-01T06:27:09;7.50;;;5.67;;
67749;SDS011;54550;48.838;8.828;2023-02-01T06:29:34;12.10;;;8.37;;
67749;SDS011;54550;48.838;8.828;2023-02-01T06:32:00;9.33;;;6.47;;
67749;SDS011;54550;48.838;8.828;2023-02-01T06:34:26;9.93;;;5.13;;
67749;SDS011;54550;48.838;8.828;2023-02-01T06:36:51;11.90;;;3.03;;
67749;SDS011;54550;48.838;8.828;2023-02-01T06:39:17;8.80;;;4.60;;
67749;SDS011;54550;48.838;8.828;2023-02-01T06:41:46;16.00;;;3.90;;
67749;SDS011;54550;48.838;8.828;2023-02-01T06:44:12;16.63;;;5.50;;
67749;SDS011;54550;48.838;8.828;2023-02-01T06:46:38;12.77;;;3.73;;
67749;SDS011;54550;48.838;8.828;2023-02-01T06:49:03;13.23;;;3.60;;
67749;SDS011;54550;48.838;8.828;2023-02-01T06:51:29;17.77;;;4.27;;
67749;SDS011;54550;48.838;8.828;2023-02-01T06:53:55;9.57;;;3.87;;
67749;SDS011;54550;48.838;8.828;2023-02-01T06:56:21;5.77;;;3.33;;
67749;SDS011;54550;48.838;8.828;2023-02-01T06:58:47;8.43;;;4.15;;
67749;SDS011;54550;48.838;8.828;2023-02-01T07:01:13;16.27;;;3.67;;
67749;SDS011;54550;48.838;8.828;2023-02-01T07:03:39;10.02;;;3.95;;
67749;SDS011;54550;48.838;8.828;2023-02-01T07:06:06;4.60;;;3.40;;
67749;SDS011;54550;48.838;8.828;2023-02-01T07:08:33;4.65;;;3.53;;
67749;SDS011;54550;48.838;8.828;2023-02-01T07:11:03;12.05;;;3.70;;
67749;SDS011;54550;48.838;8.828;2023-02-01T07:13:30;15.07;;;6.30;;
67749;SDS011;54550;48.838;8.828;2023-02-01T07:15:59;7.23;;;3.30;;
67749;SDS011;54550;48.838;8.828;2023-02-01T07:18:30;10.45;;;3.47;;
67749;SDS011;54550;48.838;8.828;2023-02-01T07:20:56;18.83;;;4.60;;
67749;SDS011;54550;48.838;8.828;2023-02-01T07:23:22;6.80;;;3.60;;
67749;SDS011;54550;48.838;8.828;2023-02-01T07:25:48;11.15;;;3.40;;
67749;SDS011;54550;48.838;8.828;2023-02-01T07:28:18;14.30;;;4.00;;
67749;SDS011;54550;48.838;8.828;2023-02-01T07:30:44;22.77;;;3.93;;
67749;SDS011;54550;48.838;8.828;2023-02-01T07:33:15;24.98;;;3.10;;
67749;SDS011;54550;48.838;8.828;2023-02-01T07:35:48;11.93;;;3.97;;
67749;SDS011;54550;48.838;8.828;2023-02-01T07:38:14;14.60;;;4.40;;
67749;SDS011;54550;48.838;8.828;2023-02-01T07:40:40;7.60;;;3.70;;
67749;SDS011;54550;48.838;8.828;2023-02-01T07:43:06;10.90;;;3.70;;
67749;SDS011;54550;48.838;8.828;2023-02-01T07:45:32;10.75;;;2.90;;
67749;SDS011;54550;48.838;8.828;2023-02-01T07:47:59;7.53;;;4.53;;
67749;SDS011;54550;48.838;8.828;2023-02-01T07:50:24;11.97;;;3.50;;
67749;SDS011;54550;48.838;8.828;2023-02-01T07:52:50;16.93;;;4.20;;
67749;SDS011;54550;48.838;8.828;2023-02-01T07:55:15;14.53;;;4.30;;
67749;SDS011;54550;48.838;8.828;2023-02-01T07:57:41;8.60;;;3.80;;
67749;SDS011;54550;48.838;8.828;2023-02-01T08:00:07;11.70;;;3.23;;
67749;SDS011;54550;48.838;8.828;2023-02-01T08:02:52;14.55;;;3.78;;
67749;SDS011;54550;48.838;8.828;2023-02-01T08:05:17;7.90;;;3.17;;
67749;SDS011;54550;48.838;8.828;2023-02-01T08:07:43;8.90;;;3.50;;
67749;SDS011;54550;48.838;8.828;2023-02-01T08:10:08;13.47;;;3.40;;
67749;SDS011;54550;48.838;8.828;2023-02-01T08:12:36;7.72;;;2.50;;
67749;SDS011;54550;48.838;8.828;2023-02-01T08:15:03;10.95;;;4.90;;
67749;SDS011;54550;48.838;8.828;2023-02-01T08:17:29;13.55;;;4.70;;
67749;SDS011;54550;48.838;8.828;2023-02-01T08:19:55;14.93;;;3.17;;
67749;SDS011;54550;48.838;8.828;2023-02-01T08:22:21;18.30;;;3.40;;
67749;SDS011;54550;48.838;8.828;2023-02-01T08:24:47;13.48;;;4.72;;
67749;SDS011;54550;48.838;8.828;2023-02-01T08:27:13;6.82;;;3.10;;
67749;SDS011;54550;48.838;8.828;2023-02-01T08:29:39;18.43;;;3.87;;
67749;SDS011;54550;48.838;8.828;2023-02-01T08:32:04;11.30;;;3.07;;
67749;SDS011;54550;48.838;8.828;2023-02-01T08:34:30;10.10;;;2.40;;
67749;SDS011;54550;48.838;8.828;2023-02-01T08:36:56;29.33;;;3.67;;
67749;SDS011;54550;48.838;8.828;2023-02-01T08:39:25;6.38;;;3.03;;
67749;SDS011;54550;48.838;8.828;2023-02-01T08:41:50;14.97;;;2.40;;
67749;SDS011;54550;48.838;8.828;2023-02-01T08:44:35;12.63;;;2.72;;
67749;SDS011;54550;48.838;8.828;2023-02-01T08:47:01;14.55;;;2.90;;
67749;SDS011;54550;48.838;8.828;2023-02-01T08:49:27;9.18;;;2.60;;
67749;SDS011;54550;48.838;8.828;2023-02-01T08:51:53;15.03;;;2.70;;
67749;SDS011;54550;48.838;8.828;2023-02-01T08:54:20;15.90;;;2.93;;
67749;SDS011;54550;48.838;8.828;2023-02-01T08:56:46;17.85;;;3.80;;
67749;SDS011;54550;48.838;8.828;2023-02-01T08:59:11;18.87;;;2.87;;
67749;SDS011;54550;48.838;8.828;2023-02-01T09:01:37;17.07;;;2.50;;
67749;SDS011;54550;48.838;8.828;2023-02-01T09:04:02;21.67;;;3.10;;
67749;SDS011;54550;48.838;8.828;2023-02-01T09:06:28;5.50;;;2.63;;
67749;SDS011;54550;48.838;8.828;2023-02-01T09:08:54;16.93;;;3.33;;
67749;SDS011;54550;48.838;8.828;2023-02-01T09:11:20;18.35;;;3.83;;
67749;SDS011;54550;48.838;8.828;2023-02-01T09:13:46;12.53;;;2.57;;
67749;SDS011;54550;48.838;8.828;2023-02-01T09:16:12;13.00;;;3.28;;
67749;SDS011;54550;48.838;8.828;2023-02-01T09:18:38;21.17;;;3.87;;
67749;SDS011;54550;48.838;8.828;2023-02-01T09:21:07;15.87;;;3.57;;
67749;SDS011;54550;48.838;8.828;2023-02-01T09:23:33;19.70;;;3.03;;
67749;SDS011;54550;48.838;8.828;2023-02-01T09:25:59;12.77;;;3.60;;
67749;SDS011;54550;48.838;8.828;2023-02-01T09:28:26;24.20;;;3.45;;
67749;SDS011;54550;48.838;8.828;2023-02-01T09:30:55;17.93;;;3.33;;
67749;SDS011;54550;48.838;8.828;2023-02-01T09:33:22;15.35;;;4.80;;
67749;SDS011;54550;48.838;8.828;2023-02-01T09:36:01;9.15;;;2.72;;
67749;SDS011;54550;48.838;8.828;2023-02-01T09:38:28;11.65;;;2.95;;
67749;SDS011;54550;48.838;8.828;2023-02-01T09:40:55;8.75;;;2.42;;
67749;SDS011;54550;48.838;8.828;2023-02-01T09:43:25;9.85;;;3.13;;
67749;SDS011;54550;48.838;8.828;2023-02-01T09:48:36;11.15;;;2.65;;
67749;SDS011;54550;48.838;8.828;2023-02-01T09:51:06;13.07;;;2.63;;
67749;SDS011;54550;48.838;8.828;2023-02-01T09:53:47;22.48;;;2.90;;
67749;SDS011;54550;48.838;8.828;2023-02-01T09:56:23;15.88;;;2.30;;
67749;SDS011;54550;48.838;8.828;2023-02-01T10:01:20;6.63;;;1.93;;
67749;SDS011;54550;48.838;8.828;2023-02-01T10:03:48;6.38;;;1.98;;
67749;SDS011;54550;48.838;8.828;2023-02-01T10:09:09;12.60;;;2.80;;
67749;SDS011;54550;48.838;8.828;2023-02-01T10:25:25;12.77;;;2.83;;
67749;SDS011;54550;48.838;8.828;2023-02-01T10:28:02;16.73;;;3.75;;
67749;SDS011;54550;48.838;8.828;2023-02-01T10:30:39;11.77;;;2.85;;
67749;SDS011;54550;48.838;8.828;2023-02-01T10:33:16;11.55;;;2.60;;
67749;SDS011;54550;48.838;8.828;2023-02-01T10:35:45;10.73;;;2.50;;
67749;SDS011;54550;48.838;8.828;2023-02-01T10:41:30;12.32;;;2.38;;
67749;SDS011;54550;48.838;8.828;2023-02-01T10:43:58;22.73;;;4.75;;
67749;SDS011;54550;48.838;8.828;2023-02-01T10:46:25;27.98;;;4.65;;
67749;SDS011;54550;48.838;8.828;2023-02-01T10:48:55;8.63;;;1.77;;
67749;SDS011;54550;48.838;8.828;2023-02-01T10:51:26;12.20;;;2.50;;
67749;SDS011;54550;48.838;8.828;2023-02-01T10:54:00;20.73;;;3.40;;
67749;SDS011;54550;48.838;8.828;2023-02-01T10:56:39;12.23;;;2.03;;
67749;SDS011;54550;48.838;8.828;2023-02-01T10:59:05;23.23;;;4.10;;
67749;SDS011;54550;48.838;8.828;2023-02-01T11:01:40;16.60;;;2.08;;
67749;SDS011;54550;48.838;8.828;2023-02-01T11:04:10;16.33;;;2.58;;
67749;SDS011;54550;48.838;8.828;2023-02-01T11:06:45;8.95;;;2.05;;
67749;SDS011;54550;48.838;8.828;2023-02-01T11:09:30;8.80;;;1.98;;
67749;SDS011;54550;48.838;8.828;2023-02-01T11:11:58;7.07;;;2.22;;
67749;SDS011;54550;48.838;8.828;2023-02-01T11:17:33;20.43;;;2.40;;
67749;SDS011;54550;48.838;8.828;2023-02-01T11:19:38;16.10;;;3.40;;
67749;SDS011;54550;48.838;8.828;2023-02-01T11:22:08;13.77;;;3.05;;
67749;SDS011;54550;48.838;8.828;2023-02-01T11:24:36;18.38;;;1.52;;
67749;SDS011;54550;48.838;8.828;2023-02-01T11:27:04;18.05;;;3.80;;
67749;SDS011;54550;48.838;8.828;2023-02-01T11:29:44;13.65;;;2.55;;
67749;SDS011;54550;48.838;8.828;2023-02-01T11:32:13;14.50;;;2.60;;
67749;SDS011;54550;48.838;8.828;2023-02-01T11:34:55;25.48;;;3.65;;
67749;SDS011;54550;48.838;8.828;2023-02-01T11:37:25;16.05;;;2.95;;
67749;SDS011;54550;48.838;8.828;2023-02-01T11:39:58;14.32;;;2.92;;
67749;SDS011;54550;48.838;8.828;2023-02-01T11:42:26;18.77;;;4.68;;
67749;SDS011;54550;48.838;8.828;2023-02-01T11:45:36;26.98;;;3.03;;
67749;SDS011;54550;48.838;8.828;2023-02-01T11:48:02;23.15;;;3.22;;
67749;SDS011;54550;48.838;8.828;2023-02-01T11:51:19;10.88;;;1.95;;
67749;SDS011;54550;48.838;8.828;2023-02-01T11:53:32;12.15;;;2.50;;
67749;SDS011;54550;48.838;8.828;2023-02-01T11:56:34;11.75;;;2.60;;
67749;SDS011;54550;48.838;8.828;2023-02-01T12:02:09;4.50;;;1.70;;
67749;SDS011;54550;48.838;8.828;2023-02-01T12:07:48;15.80;;;1.92;;
67749;SDS011;54550;48.838;8.828;2023-02-01T12:46:28;11.20;;;1.92;;
67749;SDS011;54550;48.838;8.828;2023-02-01T12:49:12;16.63;;;3.08;;
67749;SDS011;54550;48.838;8.828;2023-02-01T12:51:44;11.15;;;2.50;;
67749;SDS011;54550;48.838;8.828;2023-02-01T12:54:20;8.32;;;2.30;;
67749;SDS011;54550;48.838;8.828;2023-02-01T12:56:55;18.48;;;3.17;;
67749;SDS011;54550;48.838;8.828;2023-02-01T13:01:57;20.00;;;3.95;;
67749;SDS011;54550;48.838;8.828;2023-02-01T13:04:33;20.35;;;3.05;;
67749;SDS011;54550;48.838;8.828;2023-02-01T13:12:19;15.50;;;3.58;;
67749;SDS011;54550;48.838;8.828;2023-02-01T13:14:53;48.72;;;4.10;;
67749;SDS011;54550;48.838;8.828;2023-02-01T13:17:26;11.15;;;2.65;;
67749;SDS011;54550;48.838;8.828;2023-02-01T13:20:05;14.75;;;3.40;;
67749;SDS011;54550;48.838;8.828;2023-02-01T13:22:33;11.88;;;3.60;;
67749;SDS011;54550;48.838;8.828;2023-02-01T13:25:16;14.80;;;3.45;;
67749;SDS011;54550;48.838;8.828;2023-02-01T13:27:45;14.85;;;4.65;;
67749;SDS011;54550;48.838;8.828;2023-02-01T13:30:18;15.93;;;3.10;;
67749;SDS011;54550;48.838;8.828;2023-02-01T13:38:05;13.93;;;3.03;;
67749;SDS011;54550;48.838;8.828;2023-02-01T13:43:49;7.22;;;2.25;;
67749;SDS011;54550;48.838;8.828;2023-02-01T13:46:18;9.02;;;2.72;;
67749;SDS011;54550;48.838;8.828;2023-02-01T13:48:51;5.88;;;1.83;;
67749;SDS011;54550;48.838;8.828;2023-02-01T13:51:37;10.32;;;3.30;;
67749;SDS011;54550;48.838;8.828;2023-02-01T13:54:07;18.92;;;5.55;;
67749;SDS011;54550;48.838;8.828;2023-02-01T13:56:48;24.38;;;3.85;;
67749;SDS011;54550;48.838;8.828;2023-02-01T14:05:08;12.90;;;2.60;;
67749;SDS011;54550;48.838;8.828;2023-02-01T14:24:00;18.98;;;2.88;;
67749;SDS011;54550;48.838;8.828;2023-02-01T14:26:43;8.80;;;3.20;;
67749;SDS011;54550;48.838;8.828;2023-02-01T14:31:51;13.32;;;3.05;;
67749;SDS011;54550;48.838;8.828;2023-02-01T14:42:21;9.90;;;1.92;;
67749;SDS011;54550;48.838;8.828;2023-02-01T14:44:53;17.42;;;3.03;;
67749;SDS011;54550;48.838;8.828;2023-02-01T14:49:53;9.57;;;2.15;;
67749;SDS011;54550;48.838;8.828;2023-02-01T14:52:20;12.88;;;3.00;;
67749;SDS011;54550;48.838;8.828;2023-02-01T14:54:56;12.88;;;1.67;;
67749;SDS011;54550;48.838;8.828;2023-02-01T14:57:26;18.00;;;3.22;;
67749;SDS011;54550;48.838;8.828;2023-02-01T15:00:00;5.40;;;1.75;;
67749;SDS011;54550;48.838;8.828;2023-02-01T15:02:33;15.55;;;3.03;;
67749;SDS011;54550;48.838;8.828;2023-02-01T15:05:01;15.43;;;2.60;;
67749;SDS011;54550;48.838;8.828;2023-02-01T15:07:27;29.20;;;3.30;;
67749;SDS011;54550;48.838;8.828;2023-02-01T15:09:55;16.80;;;2.72;;
67749;SDS011;54550;48.838;8.828;2023-02-01T15:12:24;24.67;;;2.17;;
67749;SDS011;54550;48.838;8.828;2023-02-01T15:17:39;14.05;;;2.85;;
67749;SDS011;54550;48.838;8.828;2023-02-01T15:23:19;13.20;;;2.30;;
67749;SDS011;54550;48.838;8.828;2023-02-01T15:25:44;25.27;;;2.63;;
67749;SDS011;54550;48.838;8.828;2023-02-01T15:28:12;15.55;;;3.35;;
67749;SDS011;54550;48.838;8.828;2023-02-01T15:30:39;14.15;;;2.60;;
67749;SDS011;54550;48.838;8.828;2023-02-01T15:33:16;12.70;;;2.75;;
67749;SDS011;54550;48.838;8.828;2023-02-01T15:35:47;7.45;;;2.53;;
67749;SDS011;54550;48.838;8.828;2023-02-01T15:41:02;10.13;;;2.65;;
67749;SDS011;54550;48.838;8.828;2023-02-01T15:43:30;6.93;;;2.25;;
67749;SDS011;54550;48.838;8.828;2023-02-01T15:45:59;14.95;;;2.88;;
67749;SDS011;54550;48.838;8.828;2023-02-01T15:48:34;11.10;;;2.55;;
67749;SDS011;54550;48.838;8.828;2023-02-01T15:51:10;19.48;;;2.60;;
67749;SDS011;54550;48.838;8.828;2023-02-01T15:53:39;3.55;;;1.33;;
67749;SDS011;54550;48.838;8.828;2023-02-01T15:56:11;8.68;;;2.63;;
67749;SDS011;54550;48.838;8.828;2023-02-01T15:58:36;11.63;;;2.43;;
67749;SDS011;54550;48.838;8.828;2023-02-01T16:01:05;9.55;;;2.40;;
67749;SDS011;54550;48.838;8.828;2023-02-01T16:03:37;17.40;;;2.40;;
67749;SDS011;54550;48.838;8.828;2023-02-01T16:06:28;19.23;;;2.70;;
67749;SDS011;54550;48.838;8.828;2023-02-01T16:09:00;13.57;;;2.85;;
67749;SDS011;54550;48.838;8.828;2023-02-01T16:11:39;13.02;;;3.53;;
67749;SDS011;54550;48.838;8.828;2023-02-01T16:14:11;21.83;;;3.03;;
67749;SDS011;54550;48.838;8.828;2023-02-01T16:16:37;10.03;;;2.70;;
67749;SDS011;54550;48.838;8.828;2023-02-01T16:19:02;6.87;;;1.97;;
67749;SDS011;54550;48.838;8.828;2023-02-01T16:21:28;8.17;;;2.17;;
67749;SDS011;54550;48.838;8.828;2023-02-01T16:23:53;17.00;;;3.00;;
67749;SDS011;54550;48.838;8.828;2023-02-01T16:26:19;3.83;;;2.00;;
67749;SDS011;54550;48.838;8.828;2023-02-01T16:28:45;13.90;;;2.35;;
67749;SDS011;54550;48.838;8.828;2023-02-01T16:31:12;13.45;;;2.25;;
67749;SDS011;54550;48.838;8.828;2023-02-01T16:33:44;3.92;;;1.52;;
67749;SDS011;54550;48.838;8.828;2023-02-01T16:36:11;9.75;;;2.65;;
67749;SDS011;54550;48.838;8.828;2023-02-01T16:38:38;20.02;;;2.75;;
67749;SDS011;54550;48.838;8.828;2023-02-01T16:41:04;8.57;;;2.20;;
67749;SDS011;54550;48.838;8.828;2023-02-01T16:43:30;8.05;;;2.55;;
67749;SDS011;54550;48.838;8.828;2023-02-01T16:45:58;16.33;;;2.70;;
67749;SDS011;54550;48.838;8.828;2023-02-01T16:48:28;10.35;;;1.92;;
67749;SDS011;54550;48.838;8.828;2023-02-01T16:51:02;21.58;;;3.47;;
67749;SDS011;54550;48.838;8.828;2023-02-01T16:53:32;7.68;;;2.00;;
67749;SDS011;54550;48.838;8.828;2023-02-01T16:55:59;16.33;;;3.40;;
67749;SDS011;54550;48.838;8.828;2023-02-01T16:58:25;5.93;;;2.33;;
67749;SDS011;54550;48.838;8.828;2023-02-01T17:00:51;26.48;;;4.10;;
67749;SDS011;54550;48.838;8.828;2023-02-01T17:03:17;15.15;;;3.00;;
67749;SDS011;54550;48.838;8.828;2023-02-01T17:05:44;9.90;;;1.80;;
67749;SDS011;54550;48.838;8.828;2023-02-01T17:08:13;6.57;;;2.20;;
67749;SDS011;54550;48.838;8.828;2023-02-01T17:10:44;21.08;;;3.65;;
67749;SDS011;54550;48.838;8.828;2023-02-01T17:13:14;6.03;;;2.85;;
67749;SDS011;54550;48.838;8.828;2023-02-01T17:15:42;22.73;;;3.33;;
67749;SDS011;54550;48.838;8.828;2023-02-01T17:18:16;18.45;;;3.50;;
67749;SDS011;54550;48.838;8.828;2023-02-01T17:20:43;7.53;;;2.72;;
67749;SDS011;54550;48.838;8.828;2023-02-01T17:23:09;7.05;;;3.10;;
67749;SDS011;54550;48.838;8.828;2023-02-01T17:25:35;11.90;;;2.70;;
67749;SDS011;54550;48.838;8.828;2023-02-01T17:28:01;14.00;;;3.45;;
67749;SDS011;54550;48.838;8.828;2023-02-01T17:30:27;6.93;;;2.90;;